LSZS/SMV METAR and TAF weather

Enter ICAO airport designator
Station Type Date Time Source
LSZS METAR 2022/06/27 18:20 UTC NOAA

LSZS 271820Z AUTO 21007KT 160V240 9999 FEW075 17/14 Q1024


Station Type Date Time Source
LSZS Decoded METAR 2022/06/27 18:20 UTC NOAA

Station name not available
Jun 27, 2022 - 02:20 PM EDT / 2022.06.27 1820 UTC
Wind: from the SSW (210 degrees) at 8 MPH (7 KT) (direction variable):0
Visibility: greater than 7 mile(s):0
Sky conditions: mostly clear
Temperature: 62 F (17 C)
Dew Point: 57 F (14 C)
Relative Humidity: 82%
Pressure (altimeter): 30.24 in. Hg (1024 hPa)
ob: LSZS 271820Z AUTO 21007KT 160V240 9999 FEW075 17/14 Q1024
cycle: 18

Station Type Date Time Source
LSZS TAF 2022/05/09 03:30 UTC NOAA

TAF LSZS 090225Z 0903/0912 05003KT 9999 OVC025 TX11/0912Z PROB30
TEMPO 0904/0907 4500 BR BKN005
BECMG 0910/0912 22008KT

Example: see airport list